sensor_id;sensor_type;location;lat;lon;timestamp;P1;durP1;ratioP1;P2;durP2;ratioP2
59042;SDS011;44826;51.596;5.624;2024-02-23T00:01:13;1.93;;;0.57;;
59042;SDS011;44826;51.596;5.624;2024-02-23T00:03:42;1.47;;;0.63;;
59042;SDS011;44826;51.596;5.624;2024-02-23T00:06:07;2.03;;;0.70;;
59042;SDS011;44826;51.596;5.624;2024-02-23T00:08:33;1.53;;;0.70;;
59042;SDS011;44826;51.596;5.624;2024-02-23T00:10:59;3.40;;;1.10;;
59042;SDS011;44826;51.596;5.624;2024-02-23T00:13:24;2.07;;;1.10;;
59042;SDS011;44826;51.596;5.624;2024-02-23T00:15:53;2.63;;;1.27;;
59042;SDS011;44826;51.596;5.624;2024-02-23T00:18:18;2.97;;;1.37;;
59042;SDS011;44826;51.596;5.624;2024-02-23T00:20:46;3.33;;;1.60;;
59042;SDS011;44826;51.596;5.624;2024-02-23T00:23:12;2.70;;;1.73;;
59042;SDS011;44826;51.596;5.624;2024-02-23T00:25:37;3.27;;;1.70;;
59042;SDS011;44826;51.596;5.624;2024-02-23T00:28:06;5.13;;;1.90;;
59042;SDS011;44826;51.596;5.624;2024-02-23T00:30:37;2.97;;;1.70;;
59042;SDS011;44826;51.596;5.624;2024-02-23T00:33:03;3.77;;;1.60;;
59042;SDS011;44826;51.596;5.624;2024-02-23T00:35:31;2.47;;;1.60;;
59042;SDS011;44826;51.596;5.624;2024-02-23T00:37:57;3.03;;;1.53;;
59042;SDS011;44826;51.596;5.624;2024-02-23T00:40:22;4.43;;;1.52;;
59042;SDS011;44826;51.596;5.624;2024-02-23T00:42:51;2.57;;;1.50;;
59042;SDS011;44826;51.596;5.624;2024-02-23T00:45:16;3.13;;;1.30;;
59042;SDS011;44826;51.596;5.624;2024-02-23T00:47:42;2.13;;;1.30;;
59042;SDS011;44826;51.596;5.624;2024-02-23T00:50:08;5.93;;;1.30;;
59042;SDS011;44826;51.596;5.624;2024-02-23T00:52:35;3.67;;;1.30;;
59042;SDS011;44826;51.596;5.624;2024-02-23T00:55:00;2.77;;;1.30;;
59042;SDS011;44826;51.596;5.624;2024-02-23T00:57:26;2.80;;;1.10;;
59042;SDS011;44826;51.596;5.624;2024-02-23T00:59:54;2.50;;;1.10;;
59042;SDS011;44826;51.596;5.624;2024-02-23T01:02:23;2.80;;;1.10;;
59042;SDS011;44826;51.596;5.624;2024-02-23T01:04:48;2.50;;;1.00;;
59042;SDS011;44826;51.596;5.624;2024-02-23T01:07:13;1.87;;;0.90;;
59042;SDS011;44826;51.596;5.624;2024-02-23T01:09:38;2.33;;;0.83;;
59042;SDS011;44826;51.596;5.624;2024-02-23T01:12:04;1.70;;;0.87;;
59042;SDS011;44826;51.596;5.624;2024-02-23T01:14:30;3.33;;;0.90;;
59042;SDS011;44826;51.596;5.624;2024-02-23T01:16:56;1.90;;;0.83;;
59042;SDS011;44826;51.596;5.624;2024-02-23T01:19:21;3.20;;;0.80;;
59042;SDS011;44826;51.596;5.624;2024-02-23T01:21:46;2.83;;;0.80;;
59042;SDS011;44826;51.596;5.624;2024-02-23T01:24:11;2.07;;;0.80;;
59042;SDS011;44826;51.596;5.624;2024-02-23T01:26:37;3.03;;;0.70;;
59042;SDS011;44826;51.596;5.624;2024-02-23T01:29:02;1.67;;;0.60;;
59042;SDS011;44826;51.596;5.624;2024-02-23T01:31:28;3.13;;;0.67;;
59042;SDS011;44826;51.596;5.624;2024-02-23T01:33:54;3.03;;;0.70;;
59042;SDS011;44826;51.596;5.624;2024-02-23T01:36:19;2.43;;;0.80;;
59042;SDS011;44826;51.596;5.624;2024-02-23T01:38:45;1.98;;;0.60;;
59042;SDS011;44826;51.596;5.624;2024-02-23T01:41:10;2.40;;;0.60;;
59042;SDS011;44826;51.596;5.624;2024-02-23T01:43:37;1.50;;;0.57;;
59042;SDS011;44826;51.596;5.624;2024-02-23T01:46:02;4.83;;;0.87;;
59042;SDS011;44826;51.596;5.624;2024-02-23T01:48:30;4.30;;;0.70;;
59042;SDS011;44826;51.596;5.624;2024-02-23T01:50:56;1.27;;;0.67;;
59042;SDS011;44826;51.596;5.624;2024-02-23T01:53:21;1.93;;;0.57;;
59042;SDS011;44826;51.596;5.624;2024-02-23T01:55:47;4.77;;;0.80;;
59042;SDS011;44826;51.596;5.624;2024-02-23T01:58:14;1.60;;;0.70;;
59042;SDS011;44826;51.596;5.624;2024-02-23T02:00:39;2.77;;;0.60;;
59042;SDS011;44826;51.596;5.624;2024-02-23T02:03:05;4.43;;;0.70;;
59042;SDS011;44826;51.596;5.624;2024-02-23T02:05:30;1.20;;;0.40;;
59042;SDS011;44826;51.596;5.624;2024-02-23T02:07:55;4.13;;;0.90;;
59042;SDS011;44826;51.596;5.624;2024-02-23T02:10:25;2.80;;;0.70;;
59042;SDS011;44826;51.596;5.624;2024-02-23T02:12:51;5.67;;;1.00;;
59042;SDS011;44826;51.596;5.624;2024-02-23T02:15:16;2.43;;;0.70;;
59042;SDS011;44826;51.596;5.624;2024-02-23T02:17:42;2.63;;;0.57;;
59042;SDS011;44826;51.596;5.624;2024-02-23T02:20:09;2.70;;;0.63;;
59042;SDS011;44826;51.596;5.624;2024-02-23T02:22:37;2.33;;;0.70;;
59042;SDS011;44826;51.596;5.624;2024-02-23T02:25:03;4.30;;;0.70;;
59042;SDS011;44826;51.596;5.624;2024-02-23T02:27:29;4.00;;;0.80;;
59042;SDS011;44826;51.596;5.624;2024-02-23T02:29:54;3.73;;;0.80;;
59042;SDS011;44826;51.596;5.624;2024-02-23T02:32:19;3.80;;;0.70;;
59042;SDS011;44826;51.596;5.624;2024-02-23T02:34:45;1.37;;;0.50;;
59042;SDS011;44826;51.596;5.624;2024-02-23T02:37:10;4.70;;;0.83;;
59042;SDS011;44826;51.596;5.624;2024-02-23T02:39:35;3.03;;;0.70;;
59042;SDS011;44826;51.596;5.624;2024-02-23T02:42:01;2.70;;;0.60;;
59042;SDS011;44826;51.596;5.624;2024-02-23T02:44:26;2.93;;;0.60;;
59042;SDS011;44826;51.596;5.624;2024-02-23T02:46:55;2.53;;;0.50;;
59042;SDS011;44826;51.596;5.624;2024-02-23T02:49:20;2.30;;;0.50;;
59042;SDS011;44826;51.596;5.624;2024-02-23T02:51:46;3.67;;;0.40;;
59042;SDS011;44826;51.596;5.624;2024-02-23T02:54:11;3.37;;;0.60;;
59042;SDS011;44826;51.596;5.624;2024-02-23T02:56:36;2.63;;;0.40;;
59042;SDS011;44826;51.596;5.624;2024-02-23T02:59:11;2.40;;;0.50;;
59042;SDS011;44826;51.596;5.624;2024-02-23T03:01:37;3.00;;;0.60;;
59042;SDS011;44826;51.596;5.624;2024-02-23T03:04:02;2.57;;;0.60;;
59042;SDS011;44826;51.596;5.624;2024-02-23T03:06:27;3.67;;;0.70;;
59042;SDS011;44826;51.596;5.624;2024-02-23T03:08:53;2.80;;;0.60;;
59042;SDS011;44826;51.596;5.624;2024-02-23T03:11:18;1.93;;;0.50;;
59042;SDS011;44826;51.596;5.624;2024-02-23T03:13:43;2.23;;;0.60;;
59042;SDS011;44826;51.596;5.624;2024-02-23T03:16:16;4.10;;;0.70;;
59042;SDS011;44826;51.596;5.624;2024-02-23T03:18:42;1.47;;;0.50;;
59042;SDS011;44826;51.596;5.624;2024-02-23T03:21:07;2.83;;;0.70;;
59042;SDS011;44826;51.596;5.624;2024-02-23T03:23:34;2.90;;;0.60;;
59042;SDS011;44826;51.596;5.624;2024-02-23T03:26:00;3.00;;;0.50;;
59042;SDS011;44826;51.596;5.624;2024-02-23T03:28:25;2.33;;;0.60;;
59042;SDS011;44826;51.596;5.624;2024-02-23T03:30:50;1.97;;;0.50;;
59042;SDS011;44826;51.596;5.624;2024-02-23T03:33:16;3.60;;;0.67;;
59042;SDS011;44826;51.596;5.624;2024-02-23T03:35:41;2.43;;;0.80;;
59042;SDS011;44826;51.596;5.624;2024-02-23T03:38:06;2.60;;;0.63;;
59042;SDS011;44826;51.596;5.624;2024-02-23T03:40:32;3.47;;;0.60;;
59042;SDS011;44826;51.596;5.624;2024-02-23T03:42:57;4.80;;;0.73;;
59042;SDS011;44826;51.596;5.624;2024-02-23T03:45:22;2.00;;;0.70;;
59042;SDS011;44826;51.596;5.624;2024-02-23T03:47:48;3.60;;;0.80;;
59042;SDS011;44826;51.596;5.624;2024-02-23T03:50:13;2.45;;;0.70;;
59042;SDS011;44826;51.596;5.624;2024-02-23T03:52:38;2.83;;;0.60;;
59042;SDS011;44826;51.596;5.624;2024-02-23T03:55:04;4.47;;;0.60;;
59042;SDS011;44826;51.596;5.624;2024-02-23T03:57:30;3.50;;;0.60;;
59042;SDS011;44826;51.596;5.624;2024-02-23T03:59:56;3.80;;;0.60;;
59042;SDS011;44826;51.596;5.624;2024-02-23T04:02:22;2.07;;;0.70;;
59042;SDS011;44826;51.596;5.624;2024-02-23T04:04:48;4.50;;;0.77;;
59042;SDS011;44826;51.596;5.624;2024-02-23T04:07:13;3.60;;;0.83;;
59042;SDS011;44826;51.596;5.624;2024-02-23T04:09:39;3.73;;;0.70;;
59042;SDS011;44826;51.596;5.624;2024-02-23T04:12:04;3.07;;;0.80;;
59042;SDS011;44826;51.596;5.624;2024-02-23T04:14:32;4.57;;;1.00;;
59042;SDS011;44826;51.596;5.624;2024-02-23T04:17:01;5.10;;;1.30;;
59042;SDS011;44826;51.596;5.624;2024-02-23T04:19:27;3.33;;;0.80;;
59042;SDS011;44826;51.596;5.624;2024-02-23T04:21:52;4.13;;;0.73;;
59042;SDS011;44826;51.596;5.624;2024-02-23T04:24:17;2.53;;;0.90;;
59042;SDS011;44826;51.596;5.624;2024-02-23T04:26:42;1.93;;;0.80;;
59042;SDS011;44826;51.596;5.624;2024-02-23T04:29:08;4.10;;;1.23;;
59042;SDS011;44826;51.596;5.624;2024-02-23T04:31:35;2.80;;;0.77;;
59042;SDS011;44826;51.596;5.624;2024-02-23T04:34:02;2.37;;;0.90;;
59042;SDS011;44826;51.596;5.624;2024-02-23T04:36:28;5.17;;;1.20;;
59042;SDS011;44826;51.596;5.624;2024-02-23T04:38:54;7.13;;;1.10;;
59042;SDS011;44826;51.596;5.624;2024-02-23T04:41:19;2.00;;;0.90;;
59042;SDS011;44826;51.596;5.624;2024-02-23T04:43:47;3.25;;;1.10;;
59042;SDS011;44826;51.596;5.624;2024-02-23T04:46:12;2.67;;;0.90;;
59042;SDS011;44826;51.596;5.624;2024-02-23T04:48:38;3.23;;;1.00;;
59042;SDS011;44826;51.596;5.624;2024-02-23T04:51:03;4.97;;;1.10;;
59042;SDS011;44826;51.596;5.624;2024-02-23T04:53:29;2.47;;;1.07;;
59042;SDS011;44826;51.596;5.624;2024-02-23T04:55:54;3.20;;;0.90;;
59042;SDS011;44826;51.596;5.624;2024-02-23T04:58:19;2.60;;;1.00;;
59042;SDS011;44826;51.596;5.624;2024-02-23T05:00:45;5.30;;;1.07;;
59042;SDS011;44826;51.596;5.624;2024-02-23T05:03:11;3.27;;;0.90;;
59042;SDS011;44826;51.596;5.624;2024-02-23T05:05:36;3.00;;;1.03;;
59042;SDS011;44826;51.596;5.624;2024-02-23T05:08:02;3.20;;;1.10;;
59042;SDS011;44826;51.596;5.624;2024-02-23T05:10:27;3.00;;;0.90;;
59042;SDS011;44826;51.596;5.624;2024-02-23T05:12:53;3.50;;;1.10;;
59042;SDS011;44826;51.596;5.624;2024-02-23T05:15:18;4.00;;;0.93;;
59042;SDS011;44826;51.596;5.624;2024-02-23T05:17:44;6.33;;;1.00;;
59042;SDS011;44826;51.596;5.624;2024-02-23T05:20:09;2.60;;;0.90;;
59042;SDS011;44826;51.596;5.624;2024-02-23T05:22:38;3.83;;;1.30;;
59042;SDS011;44826;51.596;5.624;2024-02-23T05:25:04;2.87;;;0.80;;
59042;SDS011;44826;51.596;5.624;2024-02-23T05:27:30;5.22;;;1.00;;
59042;SDS011;44826;51.596;5.624;2024-02-23T05:29:56;3.08;;;0.80;;
59042;SDS011;44826;51.596;5.624;2024-02-23T05:32:21;5.22;;;1.00;;
59042;SDS011;44826;51.596;5.624;2024-02-23T05:34:46;2.95;;;0.88;;
59042;SDS011;44826;51.596;5.624;2024-02-23T05:37:16;4.82;;;0.80;;
59042;SDS011;44826;51.596;5.624;2024-02-23T05:39:41;4.40;;;0.80;;
59042;SDS011;44826;51.596;5.624;2024-02-23T05:42:07;4.03;;;0.80;;
59042;SDS011;44826;51.596;5.624;2024-02-23T05:44:32;3.80;;;0.80;;
59042;SDS011;44826;51.596;5.624;2024-02-23T05:46:58;3.33;;;1.00;;
59042;SDS011;44826;51.596;5.624;2024-02-23T05:49:23;7.83;;;0.97;;
59042;SDS011;44826;51.596;5.624;2024-02-23T05:51:49;3.40;;;0.93;;
59042;SDS011;44826;51.596;5.624;2024-02-23T05:54:14;3.88;;;0.60;;
59042;SDS011;44826;51.596;5.624;2024-02-23T05:56:39;4.68;;;0.75;;
59042;SDS011;44826;51.596;5.624;2024-02-23T05:59:05;4.43;;;1.03;;
59042;SDS011;44826;51.596;5.624;2024-02-23T06:01:31;4.60;;;0.87;;
59042;SDS011;44826;51.596;5.624;2024-02-23T06:03:56;2.53;;;0.73;;
59042;SDS011;44826;51.596;5.624;2024-02-23T06:06:22;6.60;;;0.83;;
59042;SDS011;44826;51.596;5.624;2024-02-23T06:08:47;2.93;;;0.83;;
59042;SDS011;44826;51.596;5.624;2024-02-23T06:11:14;4.90;;;0.80;;
59042;SDS011;44826;51.596;5.624;2024-02-23T06:13:40;4.30;;;0.67;;
59042;SDS011;44826;51.596;5.624;2024-02-23T06:16:09;4.17;;;0.80;;
59042;SDS011;44826;51.596;5.624;2024-02-23T06:18:35;4.47;;;1.00;;
59042;SDS011;44826;51.596;5.624;2024-02-23T06:21:01;3.20;;;0.70;;
59042;SDS011;44826;51.596;5.624;2024-02-23T06:23:27;2.72;;;0.88;;
59042;SDS011;44826;51.596;5.624;2024-02-23T06:25:52;4.50;;;1.00;;
59042;SDS011;44826;51.596;5.624;2024-02-23T06:28:18;5.33;;;0.90;;
59042;SDS011;44826;51.596;5.624;2024-02-23T06:30:43;3.57;;;0.80;;
59042;SDS011;44826;51.596;5.624;2024-02-23T06:33:08;3.23;;;0.70;;
59042;SDS011;44826;51.596;5.624;2024-02-23T06:35:34;5.60;;;0.95;;
59042;SDS011;44826;51.596;5.624;2024-02-23T06:37:59;2.80;;;0.80;;
59042;SDS011;44826;51.596;5.624;2024-02-23T06:40:24;3.97;;;0.80;;
59042;SDS011;44826;51.596;5.624;2024-02-23T06:42:50;4.57;;;1.20;;
59042;SDS011;44826;51.596;5.624;2024-02-23T06:45:16;5.38;;;1.00;;
59042;SDS011;44826;51.596;5.624;2024-02-23T06:47:41;4.10;;;0.73;;
59042;SDS011;44826;51.596;5.624;2024-02-23T06:50:07;5.25;;;0.90;;
59042;SDS011;44826;51.596;5.624;2024-02-23T06:52:33;1.95;;;0.88;;
59042;SDS011;44826;51.596;5.624;2024-02-23T06:54:59;5.53;;;1.00;;
59042;SDS011;44826;51.596;5.624;2024-02-23T06:57:24;4.80;;;0.98;;
59042;SDS011;44826;51.596;5.624;2024-02-23T06:59:51;6.45;;;0.85;;
59042;SDS011;44826;51.596;5.624;2024-02-23T07:02:16;3.83;;;0.68;;
59042;SDS011;44826;51.596;5.624;2024-02-23T07:04:42;4.55;;;0.80;;
59042;SDS011;44826;51.596;5.624;2024-02-23T07:07:07;4.45;;;1.00;;
59042;SDS011;44826;51.596;5.624;2024-02-23T07:09:33;4.22;;;1.05;;
59042;SDS011;44826;51.596;5.624;2024-02-23T07:11:59;2.38;;;0.75;;
59042;SDS011;44826;51.596;5.624;2024-02-23T07:14:25;3.65;;;1.02;;
59042;SDS011;44826;51.596;5.624;2024-02-23T07:16:50;4.43;;;0.93;;
59042;SDS011;44826;51.596;5.624;2024-02-23T07:19:17;3.58;;;0.70;;
59042;SDS011;44826;51.596;5.624;2024-02-23T07:21:42;5.38;;;1.17;;
59042;SDS011;44826;51.596;5.624;2024-02-23T07:24:08;5.93;;;0.80;;
59042;SDS011;44826;51.596;5.624;2024-02-23T07:26:33;4.22;;;0.90;;
59042;SDS011;44826;51.596;5.624;2024-02-23T07:28:59;4.70;;;1.00;;
59042;SDS011;44826;51.596;5.624;2024-02-23T07:31:24;3.65;;;0.90;;
59042;SDS011;44826;51.596;5.624;2024-02-23T07:33:50;5.85;;;1.02;;
59042;SDS011;44826;51.596;5.624;2024-02-23T07:36:16;4.97;;;1.05;;
59042;SDS011;44826;51.596;5.624;2024-02-23T07:38:44;10.25;;;1.20;;
59042;SDS011;44826;51.596;5.624;2024-02-23T07:41:11;5.93;;;0.85;;
59042;SDS011;44826;51.596;5.624;2024-02-23T07:43:38;4.10;;;0.95;;
59042;SDS011;44826;51.596;5.624;2024-02-23T07:46:03;5.03;;;1.02;;
59042;SDS011;44826;51.596;5.624;2024-02-23T07:48:30;5.07;;;1.00;;
59042;SDS011;44826;51.596;5.624;2024-02-23T07:50:55;6.53;;;1.00;;
59042;SDS011;44826;51.596;5.624;2024-02-23T07:53:21;9.35;;;1.33;;
59042;SDS011;44826;51.596;5.624;2024-02-23T07:55:46;3.22;;;0.82;;
59042;SDS011;44826;51.596;5.624;2024-02-23T07:58:11;3.10;;;1.30;;
59042;SDS011;44826;51.596;5.624;2024-02-23T08:00:37;5.53;;;1.33;;
59042;SDS011;44826;51.596;5.624;2024-02-23T08:03:03;3.63;;;0.98;;
59042;SDS011;44826;51.596;5.624;2024-02-23T08:05:29;3.55;;;0.70;;
59042;SDS011;44826;51.596;5.624;2024-02-23T08:07:54;3.83;;;1.10;;
59042;SDS011;44826;51.596;5.624;2024-02-23T08:10:19;3.67;;;0.80;;
59042;SDS011;44826;51.596;5.624;2024-02-23T08:12:45;2.72;;;0.85;;
59042;SDS011;44826;51.596;5.624;2024-02-23T08:15:11;5.82;;;0.98;;
59042;SDS011;44826;51.596;5.624;2024-02-23T08:17:37;3.10;;;0.70;;
59042;SDS011;44826;51.596;5.624;2024-02-23T08:20:02;5.03;;;0.90;;
59042;SDS011;44826;51.596;5.624;2024-02-23T08:22:29;1.95;;;0.70;;
59042;SDS011;44826;51.596;5.624;2024-02-23T08:24:54;2.60;;;0.93;;
59042;SDS011;44826;51.596;5.624;2024-02-23T08:27:19;4.63;;;0.90;;
59042;SDS011;44826;51.596;5.624;2024-02-23T08:29:45;4.80;;;0.80;;
59042;SDS011;44826;51.596;5.624;2024-02-23T08:32:10;5.53;;;0.65;;
59042;SDS011;44826;51.596;5.624;2024-02-23T08:34:35;2.70;;;0.52;;
59042;SDS011;44826;51.596;5.624;2024-02-23T08:37:01;2.17;;;0.60;;
59042;SDS011;44826;51.596;5.624;2024-02-23T08:39:26;3.28;;;0.73;;
59042;SDS011;44826;51.596;5.624;2024-02-23T08:41:52;6.72;;;1.10;;
59042;SDS011;44826;51.596;5.624;2024-02-23T08:44:18;3.75;;;0.65;;
59042;SDS011;44826;51.596;5.624;2024-02-23T08:46:43;3.55;;;0.75;;
59042;SDS011;44826;51.596;5.624;2024-02-23T08:49:09;2.97;;;0.68;;
59042;SDS011;44826;51.596;5.624;2024-02-23T08:51:34;3.45;;;0.80;;
59042;SDS011;44826;51.596;5.624;2024-02-23T08:53:59;2.90;;;0.70;;
59042;SDS011;44826;51.596;5.624;2024-02-23T08:56:29;4.47;;;0.80;;
59042;SDS011;44826;51.596;5.624;2024-02-23T08:58:54;5.68;;;1.00;;
59042;SDS011;44826;51.596;5.624;2024-02-23T09:01:20;3.63;;;1.00;;
59042;SDS011;44826;51.596;5.624;2024-02-23T09:03:45;5.20;;;1.00;;
59042;SDS011;44826;51.596;5.624;2024-02-23T09:06:10;2.95;;;0.80;;
59042;SDS011;44826;51.596;5.624;2024-02-23T09:08:36;4.85;;;0.95;;
59042;SDS011;44826;51.596;5.624;2024-02-23T09:11:01;4.80;;;0.80;;
59042;SDS011;44826;51.596;5.624;2024-02-23T09:13:26;5.50;;;0.80;;
59042;SDS011;44826;51.596;5.624;2024-02-23T09:15:54;4.93;;;1.15;;
59042;SDS011;44826;51.596;5.624;2024-02-23T09:18:20;3.40;;;0.70;;
59042;SDS011;44826;51.596;5.624;2024-02-23T09:20:45;4.72;;;1.20;;
59042;SDS011;44826;51.596;5.624;2024-02-23T09:23:10;4.65;;;0.80;;
59042;SDS011;44826;51.596;5.624;2024-02-23T09:25:37;3.33;;;0.80;;
59042;SDS011;44826;51.596;5.624;2024-02-23T09:28:02;2.95;;;0.55;;
59042;SDS011;44826;51.596;5.624;2024-02-23T09:30:28;6.03;;;0.98;;
59042;SDS011;44826;51.596;5.624;2024-02-23T09:32:53;3.90;;;0.93;;
59042;SDS011;44826;51.596;5.624;2024-02-23T09:35:19;5.00;;;0.80;;
59042;SDS011;44826;51.596;5.624;2024-02-23T09:37:45;5.07;;;1.00;;
59042;SDS011;44826;51.596;5.624;2024-02-23T09:40:10;4.55;;;1.10;;
59042;SDS011;44826;51.596;5.624;2024-02-23T09:42:36;2.20;;;0.75;;
59042;SDS011;44826;51.596;5.624;2024-02-23T09:45:03;6.07;;;1.00;;
59042;SDS011;44826;51.596;5.624;2024-02-23T09:47:30;3.25;;;0.70;;
59042;SDS011;44826;51.596;5.624;2024-02-23T09:49:56;2.25;;;0.90;;
59042;SDS011;44826;51.596;5.624;2024-02-23T09:52:22;2.72;;;0.80;;
59042;SDS011;44826;51.596;5.624;2024-02-23T09:54:48;2.58;;;0.80;;
59042;SDS011;44826;51.596;5.624;2024-02-23T09:57:14;3.60;;;0.80;;
59042;SDS011;44826;51.596;5.624;2024-02-23T09:59:41;1.83;;;0.82;;
59042;SDS011;44826;51.596;5.624;2024-02-23T10:02:09;4.80;;;0.80;;
59042;SDS011;44826;51.596;5.624;2024-02-23T10:04:40;2.63;;;0.60;;
59042;SDS011;44826;51.596;5.624;2024-02-23T10:07:08;4.88;;;0.90;;
59042;SDS011;44826;51.596;5.624;2024-02-23T10:09:34;2.55;;;0.50;;
59042;SDS011;44826;51.596;5.624;2024-02-23T10:11:59;4.70;;;0.73;;
59042;SDS011;44826;51.596;5.624;2024-02-23T10:14:25;4.40;;;0.80;;
59042;SDS011;44826;51.596;5.624;2024-02-23T10:16:50;2.70;;;0.60;;
59042;SDS011;44826;51.596;5.624;2024-02-23T10:19:19;3.55;;;0.60;;
59042;SDS011;44826;51.596;5.624;2024-02-23T10:21:45;3.83;;;0.70;;
59042;SDS011;44826;51.596;5.624;2024-02-23T10:24:10;3.17;;;0.75;;
59042;SDS011;44826;51.596;5.624;2024-02-23T10:26:36;2.25;;;0.65;;
59042;SDS011;44826;51.596;5.624;2024-02-23T10:29:01;2.60;;;0.60;;
59042;SDS011;44826;51.596;5.624;2024-02-23T10:31:28;2.60;;;0.70;;
59042;SDS011;44826;51.596;5.624;2024-02-23T10:33:56;3.30;;;0.50;;
59042;SDS011;44826;51.596;5.624;2024-02-23T10:36:22;3.30;;;0.77;;
59042;SDS011;44826;51.596;5.624;2024-02-23T10:38:50;1.02;;;0.55;;
59042;SDS011;44826;51.596;5.624;2024-02-23T10:41:19;2.72;;;0.73;;
59042;SDS011;44826;51.596;5.624;2024-02-23T10:43:47;1.95;;;0.50;;
59042;SDS011;44826;51.596;5.624;2024-02-23T10:46:13;2.22;;;0.60;;
59042;SDS011;44826;51.596;5.624;2024-02-23T10:48:43;1.70;;;0.70;;
59042;SDS011;44826;51.596;5.624;2024-02-23T10:51:10;1.52;;;0.45;;
59042;SDS011;44826;51.596;5.624;2024-02-23T10:53:37;5.43;;;0.80;;
59042;SDS011;44826;51.596;5.624;2024-02-23T10:56:07;4.25;;;0.70;;
59042;SDS011;44826;51.596;5.624;2024-02-23T10:58:32;1.92;;;0.50;;
59042;SDS011;44826;51.596;5.624;2024-02-23T11:00:59;2.20;;;1.00;;
59042;SDS011;44826;51.596;5.624;2024-02-23T11:03:28;2.30;;;0.60;;
59042;SDS011;44826;51.596;5.624;2024-02-23T11:05:55;5.65;;;0.70;;
59042;SDS011;44826;51.596;5.624;2024-02-23T11:08:20;2.17;;;0.70;;
59042;SDS011;44826;51.596;5.624;2024-02-23T11:10:49;2.28;;;0.75;;
59042;SDS011;44826;51.596;5.624;2024-02-23T11:13:18;2.53;;;0.50;;
59042;SDS011;44826;51.596;5.624;2024-02-23T11:15:44;4.15;;;0.70;;
59042;SDS011;44826;51.596;5.624;2024-02-23T11:18:22;1.42;;;0.70;;
59042;SDS011;44826;51.596;5.624;2024-02-23T11:20:55;4.10;;;0.68;;
59042;SDS011;44826;51.596;5.624;2024-02-23T11:23:48;3.03;;;0.88;;
59042;SDS011;44826;51.596;5.624;2024-02-23T11:26:14;5.10;;;0.85;;
59042;SDS011;44826;51.596;5.624;2024-02-23T11:31:22;1.70;;;0.70;;
59042;SDS011;44826;51.596;5.624;2024-02-23T11:33:49;1.58;;;0.50;;
59042;SDS011;44826;51.596;5.624;2024-02-23T11:36:34;2.85;;;0.80;;
59042;SDS011;44826;51.596;5.624;2024-02-23T11:39:01;3.38;;;0.70;;
59042;SDS011;44826;51.596;5.624;2024-02-23T11:41:27;2.42;;;0.70;;
59042;SDS011;44826;51.596;5.624;2024-02-23T11:43:54;3.40;;;0.50;;
59042;SDS011;44826;51.596;5.624;2024-02-23T11:46:20;4.13;;;0.70;;
59042;SDS011;44826;51.596;5.624;2024-02-23T11:48:47;3.75;;;0.75;;
59042;SDS011;44826;51.596;5.624;2024-02-23T11:51:18;4.32;;;0.98;;
59042;SDS011;44826;51.596;5.624;2024-02-23T11:53:45;2.45;;;0.60;;
59042;SDS011;44826;51.596;5.624;2024-02-23T11:56:12;3.15;;;0.77;;
59042;SDS011;44826;51.596;5.624;2024-02-23T11:58:38;3.15;;;0.90;;
59042;SDS011;44826;51.596;5.624;2024-02-23T12:01:04;3.50;;;0.60;;
59042;SDS011;44826;51.596;5.624;2024-02-23T12:03:31;6.10;;;0.70;;
59042;SDS011;44826;51.596;5.624;2024-02-23T12:05:57;3.13;;;0.75;;
59042;SDS011;44826;51.596;5.624;2024-02-23T12:08:30;3.85;;;0.68;;
59042;SDS011;44826;51.596;5.624;2024-02-23T12:11:02;3.75;;;0.70;;
59042;SDS011;44826;51.596;5.624;2024-02-23T12:13:28;3.17;;;0.52;;
59042;SDS011;44826;51.596;5.624;2024-02-23T12:15:54;2.25;;;0.60;;
59042;SDS011;44826;51.596;5.624;2024-02-23T12:18:24;1.92;;;0.55;;
59042;SDS011;44826;51.596;5.624;2024-02-23T12:20:52;3.15;;;0.63;;
59042;SDS011;44826;51.596;5.624;2024-02-23T12:23:18;1.55;;;0.50;;
59042;SDS011;44826;51.596;5.624;2024-02-23T12:25:56;2.53;;;0.70;;
59042;SDS011;44826;51.596;5.624;2024-02-23T12:28:22;2.55;;;0.70;;
59042;SDS011;44826;51.596;5.624;2024-02-23T12:31:01;2.75;;;0.60;;
59042;SDS011;44826;51.596;5.624;2024-02-23T12:33:33;5.05;;;0.80;;
59042;SDS011;44826;51.596;5.624;2024-02-23T12:36:00;1.33;;;0.60;;
59042;SDS011;44826;51.596;5.624;2024-02-23T12:38:27;2.78;;;0.70;;
59042;SDS011;44826;51.596;5.624;2024-02-23T12:40:52;3.45;;;0.70;;
59042;SDS011;44826;51.596;5.624;2024-02-23T12:43:18;3.05;;;0.77;;
59042;SDS011;44826;51.596;5.624;2024-02-23T12:45:54;1.60;;;0.50;;
59042;SDS011;44826;51.596;5.624;2024-02-23T12:48:19;2.40;;;0.60;;
59042;SDS011;44826;51.596;5.624;2024-02-23T12:50:46;2.20;;;0.60;;
59042;SDS011;44826;51.596;5.624;2024-02-23T12:56:01;2.53;;;0.80;;
59042;SDS011;44826;51.596;5.624;2024-02-23T12:58:38;2.17;;;0.60;;
59042;SDS011;44826;51.596;5.624;2024-02-23T13:01:04;3.08;;;0.70;;
59042;SDS011;44826;51.596;5.624;2024-02-23T13:03:31;2.75;;;0.65;;
59042;SDS011;44826;51.596;5.624;2024-02-23T13:05:57;1.92;;;0.50;;
59042;SDS011;44826;51.596;5.624;2024-02-23T13:08:23;3.45;;;0.93;;
59042;SDS011;44826;51.596;5.624;2024-02-23T13:10:50;4.00;;;0.70;;
59042;SDS011;44826;51.596;5.624;2024-02-23T13:13:17;5.65;;;0.77;;
59042;SDS011;44826;51.596;5.624;2024-02-23T13:15:43;1.65;;;0.50;;
59042;SDS011;44826;51.596;5.624;2024-02-23T13:18:09;3.00;;;0.70;;
59042;SDS011;44826;51.596;5.624;2024-02-23T13:20:35;1.73;;;0.50;;
59042;SDS011;44826;51.596;5.624;2024-02-23T13:23:01;6.43;;;0.80;;
59042;SDS011;44826;51.596;5.624;2024-02-23T13:25:27;4.13;;;0.95;;
59042;SDS011;44826;51.596;5.624;2024-02-23T13:27:52;3.38;;;0.60;;
59042;SDS011;44826;51.596;5.624;2024-02-23T13:30:18;2.70;;;0.75;;
59042;SDS011;44826;51.596;5.624;2024-02-23T13:32:43;2.22;;;0.80;;
59042;SDS011;44826;51.596;5.624;2024-02-23T13:35:08;1.63;;;0.60;;
59042;SDS011;44826;51.596;5.624;2024-02-23T13:37:34;3.13;;;0.73;;
59042;SDS011;44826;51.596;5.624;2024-02-23T13:39:59;3.13;;;0.70;;
59042;SDS011;44826;51.596;5.624;2024-02-23T13:42:25;2.45;;;0.52;;
59042;SDS011;44826;51.596;5.624;2024-02-23T13:44:50;0.82;;;0.50;;
59042;SDS011;44826;51.596;5.624;2024-02-23T13:47:16;2.92;;;0.70;;
59042;SDS011;44826;51.596;5.624;2024-02-23T13:49:42;4.90;;;1.13;;
59042;SDS011;44826;51.596;5.624;2024-02-23T13:52:07;3.78;;;0.63;;
59042;SDS011;44826;51.596;5.624;2024-02-23T13:54:32;2.33;;;0.80;;
59042;SDS011;44826;51.596;5.624;2024-02-23T13:56:58;3.95;;;1.00;;
59042;SDS011;44826;51.596;5.624;2024-02-23T13:59:23;3.15;;;0.70;;
59042;SDS011;44826;51.596;5.624;2024-02-23T14:01:48;3.38;;;0.70;;
59042;SDS011;44826;51.596;5.624;2024-02-23T14:04:14;1.95;;;0.77;;
59042;SDS011;44826;51.596;5.624;2024-02-23T14:06:39;3.55;;;0.80;;
59042;SDS011;44826;51.596;5.624;2024-02-23T14:09:04;1.45;;;0.57;;
59042;SDS011;44826;51.596;5.624;2024-02-23T14:11:30;2.45;;;0.60;;
59042;SDS011;44826;51.596;5.624;2024-02-23T14:13:56;2.90;;;0.70;;
59042;SDS011;44826;51.596;5.624;2024-02-23T14:16:21;3.92;;;0.80;;
59042;SDS011;44826;51.596;5.624;2024-02-23T14:18:48;3.88;;;0.73;;
59042;SDS011;44826;51.596;5.624;2024-02-23T14:21:14;2.63;;;0.60;;
59042;SDS011;44826;51.596;5.624;2024-02-23T14:23:40;1.95;;;0.68;;
59042;SDS011;44826;51.596;5.624;2024-02-23T14:26:05;5.07;;;0.82;;
59042;SDS011;44826;51.596;5.624;2024-02-23T14:28:31;2.70;;;0.60;;
59042;SDS011;44826;51.596;5.624;2024-02-23T14:30:56;3.22;;;0.60;;
59042;SDS011;44826;51.596;5.624;2024-02-23T14:33:22;4.55;;;0.65;;
59042;SDS011;44826;51.596;5.624;2024-02-23T14:35:49;2.22;;;0.70;;
59042;SDS011;44826;51.596;5.624;2024-02-23T14:38:15;4.35;;;0.70;;
59042;SDS011;44826;51.596;5.624;2024-02-23T14:40:43;3.15;;;0.80;;
59042;SDS011;44826;51.596;5.624;2024-02-23T14:43:10;2.88;;;0.70;;
59042;SDS011;44826;51.596;5.624;2024-02-23T14:45:38;6.15;;;0.98;;
59042;SDS011;44826;51.596;5.624;2024-02-23T14:48:05;3.03;;;0.80;;